sensor_id;sensor_type;location;lat;lon;timestamp;pressure;altitude;pressure_sealevel;temperature;humidity
34065;BME280;20339;49.754;20.158;2022-11-02T00:00:01;97052.81;;;12.01;81.95
34065;BME280;20339;49.754;20.158;2022-11-02T00:02:52;97054.15;;;11.99;81.80
34065;BME280;20339;49.754;20.158;2022-11-02T00:05:23;97056.57;;;11.98;81.78
34065;BME280;20339;49.754;20.158;2022-11-02T00:07:57;97055.34;;;11.97;81.83
34065;BME280;20339;49.754;20.158;2022-11-02T00:10:28;97056.98;;;11.99;81.98
34065;BME280;20339;49.754;20.158;2022-11-02T00:12:59;97057.32;;;12.02;82.01
34065;BME280;20339;49.754;20.158;2022-11-02T00:15:33;97055.48;;;12.07;82.29
34065;BME280;20339;49.754;20.158;2022-11-02T00:18:08;97051.63;;;12.10;82.49
34065;BME280;20339;49.754;20.158;2022-11-02T00:20:42;97049.04;;;12.17;82.94
34065;BME280;20339;49.754;20.158;2022-11-02T00:23:14;97054.56;;;12.30;83.46
34065;BME280;20339;49.754;20.158;2022-11-02T00:25:47;97054.82;;;12.39;83.19
34065;BME280;20339;49.754;20.158;2022-11-02T00:28:20;97056.88;;;12.33;82.26
34065;BME280;20339;49.754;20.158;2022-11-02T00:30:51;97060.14;;;12.25;82.22
34065;BME280;20339;49.754;20.158;2022-11-02T00:33:22;97061.35;;;12.18;82.32
34065;BME280;20339;49.754;20.158;2022-11-02T00:35:53;97058.19;;;12.16;82.87
34065;BME280;20339;49.754;20.158;2022-11-02T00:38:24;97056.94;;;12.34;84.22
34065;BME280;20339;49.754;20.158;2022-11-02T00:40:55;97056.52;;;12.58;84.54
34065;BME280;20339;49.754;20.158;2022-11-02T00:43:26;97049.98;;;12.80;84.32
34065;BME280;20339;49.754;20.158;2022-11-02T00:45:57;97049.31;;;12.94;84.19
34065;BME280;20339;49.754;20.158;2022-11-02T00:48:29;97042.82;;;13.03;84.10
34065;BME280;20339;49.754;20.158;2022-11-02T00:51:02;97042.55;;;13.08;83.99
34065;BME280;20339;49.754;20.158;2022-11-02T00:53:33;97042.55;;;13.14;83.93
34065;BME280;20339;49.754;20.158;2022-11-02T00:56:05;97038.90;;;13.16;83.77
34065;BME280;20339;49.754;20.158;2022-11-02T00:58:36;97041.71;;;13.18;83.72
34065;BME280;20339;49.754;20.158;2022-11-02T01:01:08;97041.73;;;13.19;83.57
34065;BME280;20339;49.754;20.158;2022-11-02T01:03:39;97043.89;;;13.19;83.73
34065;BME280;20339;49.754;20.158;2022-11-02T01:06:13;97042.79;;;13.19;83.65
34065;BME280;20339;49.754;20.158;2022-11-02T01:08:44;97042.83;;;13.17;83.68
34065;BME280;20339;49.754;20.158;2022-11-02T01:11:18;97042.23;;;13.15;83.21
34065;BME280;20339;49.754;20.158;2022-11-02T01:13:50;97039.83;;;13.03;82.74
34065;BME280;20339;49.754;20.158;2022-11-02T01:16:23;97040.50;;;12.87;82.31
34065;BME280;20339;49.754;20.158;2022-11-02T01:18:55;97038.08;;;12.77;82.35
34065;BME280;20339;49.754;20.158;2022-11-02T01:21:26;97036.41;;;12.70;82.46
34065;BME280;20339;49.754;20.158;2022-11-02T01:23:57;97039.54;;;12.65;82.41
34065;BME280;20339;49.754;20.158;2022-11-02T01:26:28;97035.59;;;12.55;82.16
34065;BME280;20339;49.754;20.158;2022-11-02T01:28:59;97036.05;;;12.45;82.30
34065;BME280;20339;49.754;20.158;2022-11-02T01:31:30;97035.83;;;12.40;82.46
34065;BME280;20339;49.754;20.158;2022-11-02T01:34:01;97032.14;;;12.35;82.74
34065;BME280;20339;49.754;20.158;2022-11-02T01:36:32;97034.53;;;12.29;82.92
34065;BME280;20339;49.754;20.158;2022-11-02T01:39:03;97033.14;;;12.22;83.01
34065;BME280;20339;49.754;20.158;2022-11-02T01:41:34;97031.45;;;12.16;83.15
34065;BME280;20339;49.754;20.158;2022-11-02T01:44:26;97029.98;;;12.13;83.41
34065;BME280;20339;49.754;20.158;2022-11-02T01:47:01;97033.26;;;12.16;83.75
34065;BME280;20339;49.754;20.158;2022-11-02T01:49:36;97032.05;;;12.15;83.74
34065;BME280;20339;49.754;20.158;2022-11-02T01:52:12;97035.66;;;12.15;84.08
34065;BME280;20339;49.754;20.158;2022-11-02T01:54:50;97033.04;;;12.16;84.13
34065;BME280;20339;49.754;20.158;2022-11-02T01:57:23;97032.51;;;12.16;84.02
34065;BME280;20339;49.754;20.158;2022-11-02T02:00:04;97034.05;;;12.16;83.97
34065;BME280;20339;49.754;20.158;2022-11-02T02:02:39;97039.06;;;12.15;84.05
34065;BME280;20339;49.754;20.158;2022-11-02T02:05:13;97045.76;;;12.15;84.08
34065;BME280;20339;49.754;20.158;2022-11-02T02:07:47;97049.77;;;12.16;84.28
34065;BME280;20339;49.754;20.158;2022-11-02T02:10:19;97047.58;;;12.19;84.35
34065;BME280;20339;49.754;20.158;2022-11-02T02:12:50;97051.14;;;12.19;84.37
34065;BME280;20339;49.754;20.158;2022-11-02T02:15:24;97046.56;;;12.20;84.54
34065;BME280;20339;49.754;20.158;2022-11-02T02:18:02;97048.84;;;12.22;84.70
34065;BME280;20339;49.754;20.158;2022-11-02T02:20:54;97047.70;;;12.26;84.94
34065;BME280;20339;49.754;20.158;2022-11-02T02:23:41;97046.62;;;12.39;85.89
34065;BME280;20339;49.754;20.158;2022-11-02T02:26:37;97049.67;;;12.62;86.24
34065;BME280;20339;49.754;20.158;2022-11-02T02:29:17;97052.66;;;12.77;86.13
34065;BME280;20339;49.754;20.158;2022-11-02T02:31:54;97053.42;;;12.88;85.96
34065;BME280;20339;49.754;20.158;2022-11-02T02:34:32;97056.02;;;12.99;85.85
34065;BME280;20339;49.754;20.158;2022-11-02T02:37:09;97050.88;;;13.06;85.51
34065;BME280;20339;49.754;20.158;2022-11-02T02:39:45;97056.91;;;13.11;85.30
34065;BME280;20339;49.754;20.158;2022-11-02T02:42:21;97057.48;;;13.13;85.14
34065;BME280;20339;49.754;20.158;2022-11-02T02:45:00;97062.63;;;13.14;85.02
34065;BME280;20339;49.754;20.158;2022-11-02T02:47:36;97063.84;;;13.14;84.77
34065;BME280;20339;49.754;20.158;2022-11-02T02:50:12;97067.48;;;13.14;84.72
34065;BME280;20339;49.754;20.158;2022-11-02T02:52:46;97069.23;;;13.14;84.58
34065;BME280;20339;49.754;20.158;2022-11-02T02:55:23;97071.20;;;13.14;84.62
34065;BME280;20339;49.754;20.158;2022-11-02T02:57:57;97075.69;;;13.12;84.44
34065;BME280;20339;49.754;20.158;2022-11-02T03:00:31;97077.38;;;13.14;84.36
34065;BME280;20339;49.754;20.158;2022-11-02T03:03:11;97072.92;;;13.16;84.36
34065;BME280;20339;49.754;20.158;2022-11-02T03:06:02;97074.52;;;13.19;84.09
34065;BME280;20339;49.754;20.158;2022-11-02T03:08:37;97072.65;;;13.18;84.02
34065;BME280;20339;49.754;20.158;2022-11-02T03:11:13;97079.87;;;13.15;83.88
34065;BME280;20339;49.754;20.158;2022-11-02T03:13:56;97084.09;;;13.13;83.89
34065;BME280;20339;49.754;20.158;2022-11-02T03:16:46;97080.72;;;13.10;83.91
34065;BME280;20339;49.754;20.158;2022-11-02T03:19:30;97085.46;;;13.08;83.89
34065;BME280;20339;49.754;20.158;2022-11-02T03:22:07;97083.85;;;13.04;83.83
34065;BME280;20339;49.754;20.158;2022-11-02T03:24:48;97089.56;;;13.02;83.95
34065;BME280;20339;49.754;20.158;2022-11-02T03:27:28;97084.37;;;13.01;84.00
34065;BME280;20339;49.754;20.158;2022-11-02T03:30:05;97083.08;;;13.02;83.97
34065;BME280;20339;49.754;20.158;2022-11-02T03:32:45;97084.02;;;13.03;83.96
34065;BME280;20339;49.754;20.158;2022-11-02T03:35:17;97083.05;;;13.04;84.00
34065;BME280;20339;49.754;20.158;2022-11-02T03:37:53;97087.63;;;13.04;83.91
34065;BME280;20339;49.754;20.158;2022-11-02T03:40:30;97089.04;;;13.02;83.90
34065;BME280;20339;49.754;20.158;2022-11-02T03:43:05;97090.36;;;13.03;83.96
34065;BME280;20339;49.754;20.158;2022-11-02T03:45:41;97089.97;;;13.00;83.87
34065;BME280;20339;49.754;20.158;2022-11-02T03:48:15;97085.97;;;12.96;83.89
34065;BME280;20339;49.754;20.158;2022-11-02T03:50:49;97091.00;;;12.91;83.76
34065;BME280;20339;49.754;20.158;2022-11-02T03:53:29;97085.33;;;12.85;83.87
34065;BME280;20339;49.754;20.158;2022-11-02T03:56:07;97091.99;;;12.84;84.04
34065;BME280;20339;49.754;20.158;2022-11-02T03:58:39;97095.64;;;12.81;84.07
34065;BME280;20339;49.754;20.158;2022-11-02T04:01:11;97097.34;;;12.75;84.12
34065;BME280;20339;49.754;20.158;2022-11-02T04:03:45;97096.23;;;12.68;84.30
34065;BME280;20339;49.754;20.158;2022-11-02T04:06:17;97095.61;;;12.64;84.39
34065;BME280;20339;49.754;20.158;2022-11-02T04:08:49;97090.57;;;12.59;84.62
34065;BME280;20339;49.754;20.158;2022-11-02T04:11:21;97089.42;;;12.55;84.87
34065;BME280;20339;49.754;20.158;2022-11-02T04:14:10;97090.50;;;12.52;84.93
34065;BME280;20339;49.754;20.158;2022-11-02T04:16:59;97092.91;;;12.49;85.09
34065;BME280;20339;49.754;20.158;2022-11-02T04:19:46;97097.46;;;12.40;85.09
34065;BME280;20339;49.754;20.158;2022-11-02T04:22:18;97102.06;;;12.34;85.42
34065;BME280;20339;49.754;20.158;2022-11-02T04:25:13;97099.55;;;12.30;85.60
34065;BME280;20339;49.754;20.158;2022-11-02T04:27:53;97097.44;;;12.28;86.00
34065;BME280;20339;49.754;20.158;2022-11-02T04:30:25;97099.27;;;12.26;86.04
34065;BME280;20339;49.754;20.158;2022-11-02T04:32:56;97101.55;;;12.22;86.25
34065;BME280;20339;49.754;20.158;2022-11-02T04:35:45;97098.27;;;12.17;86.29
34065;BME280;20339;49.754;20.158;2022-11-02T04:38:16;97099.45;;;12.14;86.74
34065;BME280;20339;49.754;20.158;2022-11-02T04:41:04;97099.99;;;12.19;87.04
34065;BME280;20339;49.754;20.158;2022-11-02T04:43:53;97100.54;;;12.18;86.91
34065;BME280;20339;49.754;20.158;2022-11-02T04:46:28;97098.77;;;12.14;86.81
34065;BME280;20339;49.754;20.158;2022-11-02T04:49:00;97105.11;;;12.09;86.87
34065;BME280;20339;49.754;20.158;2022-11-02T04:51:31;97106.38;;;12.02;86.73
34065;BME280;20339;49.754;20.158;2022-11-02T04:54:03;97101.86;;;11.91;86.94
34065;BME280;20339;49.754;20.158;2022-11-02T04:56:34;97107.70;;;11.84;87.04
34065;BME280;20339;49.754;20.158;2022-11-02T04:59:07;97110.14;;;11.80;87.21
34065;BME280;20339;49.754;20.158;2022-11-02T05:01:39;97113.34;;;11.75;87.59
34065;BME280;20339;49.754;20.158;2022-11-02T05:04:11;97115.02;;;11.79;88.20
34065;BME280;20339;49.754;20.158;2022-11-02T05:06:42;97111.70;;;11.82;88.18
34065;BME280;20339;49.754;20.158;2022-11-02T05:09:13;97110.09;;;11.82;87.93
34065;BME280;20339;49.754;20.158;2022-11-02T05:11:44;97113.81;;;11.79;88.20
34065;BME280;20339;49.754;20.158;2022-11-02T05:14:15;97111.02;;;11.74;88.14
34065;BME280;20339;49.754;20.158;2022-11-02T05:16:47;97111.95;;;11.69;88.27
34065;BME280;20339;49.754;20.158;2022-11-02T05:19:18;97115.03;;;11.64;88.35
34065;BME280;20339;49.754;20.158;2022-11-02T05:21:49;97121.34;;;11.57;88.48
34065;BME280;20339;49.754;20.158;2022-11-02T05:24:20;97121.34;;;11.51;88.67
34065;BME280;20339;49.754;20.158;2022-11-02T05:26:51;97122.23;;;11.51;88.81
34065;BME280;20339;49.754;20.158;2022-11-02T05:29:23;97122.63;;;11.50;88.88
34065;BME280;20339;49.754;20.158;2022-11-02T05:31:54;97129.75;;;11.48;88.99
34065;BME280;20339;49.754;20.158;2022-11-02T05:34:26;97133.81;;;11.52;89.28
34065;BME280;20339;49.754;20.158;2022-11-02T05:36:57;97137.43;;;11.54;89.19
34065;BME280;20339;49.754;20.158;2022-11-02T05:39:28;97137.59;;;11.54;89.30
34065;BME280;20339;49.754;20.158;2022-11-02T05:42:00;97138.44;;;11.56;89.40
34065;BME280;20339;49.754;20.158;2022-11-02T05:44:31;97138.70;;;11.58;89.50
34065;BME280;20339;49.754;20.158;2022-11-02T05:47:02;97138.00;;;11.59;89.42
34065;BME280;20339;49.754;20.158;2022-11-02T05:49:34;97137.12;;;11.56;89.29
34065;BME280;20339;49.754;20.158;2022-11-02T05:52:05;97141.48;;;11.51;89.40
34065;BME280;20339;49.754;20.158;2022-11-02T05:54:36;97139.14;;;11.50;89.63
34065;BME280;20339;49.754;20.158;2022-11-02T05:57:08;97140.89;;;11.51;89.81
34065;BME280;20339;49.754;20.158;2022-11-02T05:59:39;97144.50;;;11.51;90.05
34065;BME280;20339;49.754;20.158;2022-11-02T06:02:10;97146.77;;;11.53;90.15
34065;BME280;20339;49.754;20.158;2022-11-02T06:04:41;97150.06;;;11.58;90.28
34065;BME280;20339;49.754;20.158;2022-11-02T06:07:12;97155.44;;;11.65;90.28
34065;BME280;20339;49.754;20.158;2022-11-02T06:09:43;97155.43;;;11.72;90.18
34065;BME280;20339;49.754;20.158;2022-11-02T06:12:15;97148.71;;;11.78;90.07
34065;BME280;20339;49.754;20.158;2022-11-02T06:14:46;97154.12;;;11.88;89.97
34065;BME280;20339;49.754;20.158;2022-11-02T06:17:18;97152.50;;;12.14;89.98
34065;BME280;20339;49.754;20.158;2022-11-02T06:19:49;97153.10;;;12.54;89.39
34065;BME280;20339;49.754;20.158;2022-11-02T06:22:20;97155.99;;;12.64;88.34
34065;BME280;20339;49.754;20.158;2022-11-02T06:24:52;97156.59;;;12.62;87.68
34065;BME280;20339;49.754;20.158;2022-11-02T06:27:23;97157.61;;;12.82;87.34
34065;BME280;20339;49.754;20.158;2022-11-02T06:29:54;97157.74;;;13.12;86.99
34065;BME280;20339;49.754;20.158;2022-11-02T06:32:26;97156.92;;;13.52;86.69
34065;BME280;20339;49.754;20.158;2022-11-02T06:34:58;97156.30;;;13.84;85.62
34065;BME280;20339;49.754;20.158;2022-11-02T06:37:30;97159.66;;;14.00;84.64
34065;BME280;20339;49.754;20.158;2022-11-02T06:40:06;97162.92;;;14.24;84.30
34065;BME280;20339;49.754;20.158;2022-11-02T06:42:37;97162.63;;;14.65;83.92
34065;BME280;20339;49.754;20.158;2022-11-02T06:45:10;97165.61;;;15.26;83.36
34065;BME280;20339;49.754;20.158;2022-11-02T06:47:41;97164.36;;;15.81;82.27
34065;BME280;20339;49.754;20.158;2022-11-02T06:50:15;97167.77;;;16.11;81.07
34065;BME280;20339;49.754;20.158;2022-11-02T06:52:47;97166.48;;;15.75;79.18
34065;BME280;20339;49.754;20.158;2022-11-02T06:55:19;97167.48;;;15.14;78.76
34065;BME280;20339;49.754;20.158;2022-11-02T06:57:50;97170.06;;;14.60;79.18
34065;BME280;20339;49.754;20.158;2022-11-02T07:00:22;97167.77;;;14.20;79.86
34065;BME280;20339;49.754;20.158;2022-11-02T07:03:02;97168.20;;;13.91;80.56
34065;BME280;20339;49.754;20.158;2022-11-02T07:05:34;97169.14;;;13.80;81.47
34065;BME280;20339;49.754;20.158;2022-11-02T07:08:05;97171.30;;;13.77;81.84
34065;BME280;20339;49.754;20.158;2022-11-02T07:10:36;97167.55;;;13.65;82.06
34065;BME280;20339;49.754;20.158;2022-11-02T07:13:08;97163.15;;;13.54;82.42
34065;BME280;20339;49.754;20.158;2022-11-02T07:15:39;97162.30;;;13.49;82.63
34065;BME280;20339;49.754;20.158;2022-11-02T07:18:11;97156.48;;;13.40;82.88
34065;BME280;20339;49.754;20.158;2022-11-02T07:20:43;97157.16;;;13.42;83.24
34065;BME280;20339;49.754;20.158;2022-11-02T07:23:14;97152.13;;;13.43;83.31
34065;BME280;20339;49.754;20.158;2022-11-02T07:25:45;97154.09;;;13.48;83.33
34065;BME280;20339;49.754;20.158;2022-11-02T07:28:16;97151.65;;;13.52;83.23
34065;BME280;20339;49.754;20.158;2022-11-02T07:30:47;97149.30;;;13.97;83.28
34065;BME280;20339;49.754;20.158;2022-11-02T07:33:19;97148.70;;;14.31;82.57
34065;BME280;20339;49.754;20.158;2022-11-02T07:35:50;97149.89;;;14.67;82.04
34065;BME280;20339;49.754;20.158;2022-11-02T07:38:21;97153.95;;;14.70;81.11
34065;BME280;20339;49.754;20.158;2022-11-02T07:40:52;97152.91;;;14.62;80.62
34065;BME280;20339;49.754;20.158;2022-11-02T07:43:31;97150.94;;;14.47;80.33
34065;BME280;20339;49.754;20.158;2022-11-02T07:46:03;97148.39;;;14.45;80.22
34065;BME280;20339;49.754;20.158;2022-11-02T07:48:35;97149.23;;;14.69;80.45
34065;BME280;20339;49.754;20.158;2022-11-02T07:51:06;97149.98;;;14.97;80.37
34065;BME280;20339;49.754;20.158;2022-11-02T07:53:40;97147.85;;;15.40;80.38
34065;BME280;20339;49.754;20.158;2022-11-02T07:56:11;97148.95;;;15.73;79.65
34065;BME280;20339;49.754;20.158;2022-11-02T07:58:42;97149.09;;;15.71;78.55
34065;BME280;20339;49.754;20.158;2022-11-02T08:01:14;97146.01;;;16.10;78.50
34065;BME280;20339;49.754;20.158;2022-11-02T08:03:45;97144.54;;;16.43;77.02
34065;BME280;20339;49.754;20.158;2022-11-02T08:06:16;97144.89;;;16.19;76.66
34065;BME280;20339;49.754;20.158;2022-11-02T08:08:48;97144.55;;;16.27;76.81
34065;BME280;20339;49.754;20.158;2022-11-02T08:11:39;97143.32;;;16.56;76.19
34065;BME280;20339;49.754;20.158;2022-11-02T08:14:10;97143.48;;;16.96;76.23
34065;BME280;20339;49.754;20.158;2022-11-02T08:16:41;97147.76;;;16.93;74.81
34065;BME280;20339;49.754;20.158;2022-11-02T08:19:13;97148.91;;;16.65;74.23
34065;BME280;20339;49.754;20.158;2022-11-02T08:21:44;97146.93;;;16.29;74.25
34065;BME280;20339;49.754;20.158;2022-11-02T08:24:16;97150.89;;;16.07;74.67
34065;BME280;20339;49.754;20.158;2022-11-02T08:26:47;97151.89;;;15.97;74.91
34065;BME280;20339;49.754;20.158;2022-11-02T08:29:18;97147.74;;;15.90;75.21
34065;BME280;20339;49.754;20.158;2022-11-02T08:31:50;97149.70;;;15.95;75.57
34065;BME280;20339;49.754;20.158;2022-11-02T08:34:21;97153.80;;;15.95;75.22
34065;BME280;20339;49.754;20.158;2022-11-02T08:36:52;97152.67;;;15.79;75.13
34065;BME280;20339;49.754;20.158;2022-11-02T08:39:23;97151.92;;;15.69;75.77
34065;BME280;20339;49.754;20.158;2022-11-02T08:41:54;97150.55;;;15.87;76.26
34065;BME280;20339;49.754;20.158;2022-11-02T08:44:25;97149.95;;;15.98;76.00
34065;BME280;20339;49.754;20.158;2022-11-02T08:46:57;97146.92;;;15.94;75.53
34065;BME280;20339;49.754;20.158;2022-11-02T08:49:28;97146.17;;;15.73;74.47
34065;BME280;20339;49.754;20.158;2022-11-02T08:51:59;97144.94;;;15.14;74.56
34065;BME280;20339;49.754;20.158;2022-11-02T08:54:30;97146.98;;;14.76;75.47
34065;BME280;20339;49.754;20.158;2022-11-02T08:57:02;97148.30;;;14.51;76.32
34065;BME280;20339;49.754;20.158;2022-11-02T08:59:33;97146.61;;;14.31;77.45
34065;BME280;20339;49.754;20.158;2022-11-02T09:02:04;97142.37;;;14.14;77.85
34065;BME280;20339;49.754;20.158;2022-11-02T09:04:35;97134.84;;;13.99;78.22
34065;BME280;20339;49.754;20.158;2022-11-02T09:07:06;97135.37;;;13.94;78.74
34065;BME280;20339;49.754;20.158;2022-11-02T09:09:37;97133.23;;;14.07;79.37
34065;BME280;20339;49.754;20.158;2022-11-02T09:12:09;97132.95;;;14.32;80.01
34065;BME280;20339;49.754;20.158;2022-11-02T09:14:41;97138.96;;;14.63;79.90
34065;BME280;20339;49.754;20.158;2022-11-02T09:17:13;97135.02;;;14.88;79.12
34065;BME280;20339;49.754;20.158;2022-11-02T09:19:44;97130.42;;;15.02;78.75
34065;BME280;20339;49.754;20.158;2022-11-02T09:22:15;97129.17;;;15.15;78.18
34065;BME280;20339;49.754;20.158;2022-11-02T09:24:47;97124.85;;;15.32;78.03
34065;BME280;20339;49.754;20.158;2022-11-02T09:27:19;97124.05;;;15.61;78.15
34065;BME280;20339;49.754;20.158;2022-11-02T09:29:52;97119.83;;;15.91;77.80
34065;BME280;20339;49.754;20.158;2022-11-02T09:32:26;97122.61;;;16.15;76.96
34065;BME280;20339;49.754;20.158;2022-11-02T09:35:03;97117.23;;;16.34;75.59
34065;BME280;20339;49.754;20.158;2022-11-02T09:37:36;97118.77;;;16.22;73.70
34065;BME280;20339;49.754;20.158;2022-11-02T09:40:11;97117.22;;;16.15;73.70
34065;BME280;20339;49.754;20.158;2022-11-02T09:42:47;97120.38;;;16.27;73.65
34065;BME280;20339;49.754;20.158;2022-11-02T09:45:24;97111.38;;;16.43;72.95
34065;BME280;20339;49.754;20.158;2022-11-02T09:47:59;97108.55;;;16.49;71.96
34065;BME280;20339;49.754;20.158;2022-11-02T09:50:41;97108.30;;;16.51;69.60
34065;BME280;20339;49.754;20.158;2022-11-02T09:53:19;97105.13;;;16.52;67.69
34065;BME280;20339;49.754;20.158;2022-11-02T09:55:55;97100.93;;;16.44;66.40
34065;BME280;20339;49.754;20.158;2022-11-02T09:58:35;97103.09;;;16.48;66.06
34065;BME280;20339;49.754;20.158;2022-11-02T10:01:16;97107.09;;;16.60;66.26
34065;BME280;20339;49.754;20.158;2022-11-02T10:04:02;97094.13;;;16.72;64.69
34065;BME280;20339;49.754;20.158;2022-11-02T10:06:38;97109.48;;;16.88;65.00
34065;BME280;20339;49.754;20.158;2022-11-02T10:09:17;97101.29;;;16.81;61.38
34065;BME280;20339;49.754;20.158;2022-11-02T10:11:58;97094.19;;;16.67;59.68
34065;BME280;20339;49.754;20.158;2022-11-02T10:14:36;97103.90;;;16.61;58.33
34065;BME280;20339;49.754;20.158;2022-11-02T10:17:13;97108.58;;;16.42;57.30
34065;BME280;20339;49.754;20.158;2022-11-02T10:19:48;97107.73;;;16.33;58.22
34065;BME280;20339;49.754;20.158;2022-11-02T10:22:26;97108.86;;;16.18;58.62
34065;BME280;20339;49.754;20.158;2022-11-02T10:24:58;97104.29;;;15.94;59.84
34065;BME280;20339;49.754;20.158;2022-11-02T10:27:33;97104.91;;;15.72;60.81
34065;BME280;20339;49.754;20.158;2022-11-02T10:30:12;97110.09;;;15.65;61.71
34065;BME280;20339;49.754;20.158;2022-11-02T10:32:45;97111.45;;;15.77;62.15
34065;BME280;20339;49.754;20.158;2022-11-02T10:35:22;97111.89;;;15.84;61.89
34065;BME280;20339;49.754;20.158;2022-11-02T10:38:07;97108.81;;;15.88;61.65
34065;BME280;20339;49.754;20.158;2022-11-02T10:41:06;97099.84;;;15.95;60.58
34065;BME280;20339;49.754;20.158;2022-11-02T10:43:51;97098.67;;;16.09;59.93
34065;BME280;20339;49.754;20.158;2022-11-02T10:46:40;97090.38;;;16.20;59.02
34065;BME280;20339;49.754;20.158;2022-11-02T10:49:24;97089.72;;;16.34;59.05
34065;BME280;20339;49.754;20.158;2022-11-02T10:52:03;97090.84;;;16.45;57.71
34065;BME280;20339;49.754;20.158;2022-11-02T10:54:34;97087.48;;;16.63;58.63
34065;BME280;20339;49.754;20.158;2022-11-02T10:57:11;97087.95;;;16.96;59.00
34065;BME280;20339;49.754;20.158;2022-11-02T10:59:42;97085.30;;;17.20;58.48
34065;BME280;20339;49.754;20.158;2022-11-02T11:02:14;97084.38;;;17.30;57.71
34065;BME280;20339;49.754;20.158;2022-11-02T11:04:47;97081.20;;;17.39;58.46
34065;BME280;20339;49.754;20.158;2022-11-02T11:07:25;97085.63;;;17.51;57.59
34065;BME280;20339;49.754;20.158;2022-11-02T11:09:57;97088.95;;;17.53;57.69
34065;BME280;20339;49.754;20.158;2022-11-02T11:12:31;97081.25;;;17.64;57.02
34065;BME280;20339;49.754;20.158;2022-11-02T11:15:15;97080.83;;;17.66;57.20
34065;BME280;20339;49.754;20.158;2022-11-02T11:17:51;97080.90;;;17.71;55.83
34065;BME280;20339;49.754;20.158;2022-11-02T11:20:32;97080.49;;;17.66;56.06
34065;BME280;20339;49.754;20.158;2022-11-02T11:23:21;97087.72;;;17.45;55.86
34065;BME280;20339;49.754;20.158;2022-11-02T11:25:58;97087.64;;;17.42;56.63
34065;BME280;20339;49.754;20.158;2022-11-02T11:28:37;97083.77;;;17.39;56.30
34065;BME280;20339;49.754;20.158;2022-11-02T11:31:14;97083.33;;;17.27;56.74
34065;BME280;20339;49.754;20.158;2022-11-02T11:33:49;97075.11;;;17.40;55.86
34065;BME280;20339;49.754;20.158;2022-11-02T11:36:24;97076.23;;;17.59;56.33
34065;BME280;20339;49.754;20.158;2022-11-02T11:38:59;97076.59;;;17.83;56.01
34065;BME280;20339;49.754;20.158;2022-11-02T11:41:33;97078.77;;;18.08;56.31
34065;BME280;20339;49.754;20.158;2022-11-02T11:44:13;97076.96;;;18.17;54.79
34065;BME280;20339;49.754;20.158;2022-11-02T11:46:46;97072.13;;;18.01;54.22
34065;BME280;20339;49.754;20.158;2022-11-02T11:49:22;97072.48;;;17.95;54.29
34065;BME280;20339;49.754;20.158;2022-11-02T11:51:56;97067.14;;;17.96;53.65
34065;BME280;20339;49.754;20.158;2022-11-02T11:54:30;97062.31;;;17.79;52.47
34065;BME280;20339;49.754;20.158;2022-11-02T11:57:21;97064.38;;;17.61;53.02
34065;BME280;20339;49.754;20.158;2022-11-02T11:59:52;97064.10;;;17.67;52.61
34065;BME280;20339;49.754;20.158;2022-11-02T12:02:26;97068.04;;;17.65;51.70
34065;BME280;20339;49.754;20.158;2022-11-02T12:05:10;97063.62;;;17.56;51.28
34065;BME280;20339;49.754;20.158;2022-11-02T12:13:56;97067.38;;;17.03;51.09
34065;BME280;20339;49.754;20.158;2022-11-02T12:16:53;97064.98;;;16.75;52.21
34065;BME280;20339;49.754;20.158;2022-11-02T12:19:36;97064.39;;;16.78;52.85
34065;BME280;20339;49.754;20.158;2022-11-02T12:22:17;97063.05;;;16.89;53.11
34065;BME280;20339;49.754;20.158;2022-11-02T12:25:15;97067.75;;;16.88;53.43
34065;BME280;20339;49.754;20.158;2022-11-02T12:27:54;97071.41;;;16.57;53.47
34065;BME280;20339;49.754;20.158;2022-11-02T12:30:32;97071.10;;;16.24;53.33
34065;BME280;20339;49.754;20.158;2022-11-02T12:33:29;97073.48;;;16.12;54.30
34065;BME280;20339;49.754;20.158;2022-11-02T12:36:11;97072.81;;;16.34;54.20
34065;BME280;20339;49.754;20.158;2022-11-02T12:39:00;97065.84;;;16.45;53.87
34065;BME280;20339;49.754;20.158;2022-11-02T12:41:47;97073.90;;;16.62;54.46
34065;BME280;20339;49.754;20.158;2022-11-02T12:44:40;97071.95;;;16.60;54.11
34065;BME280;20339;49.754;20.158;2022-11-02T12:47:23;97070.80;;;16.49;53.46
34065;BME280;20339;49.754;20.158;2022-11-02T12:50:04;97070.56;;;16.58;53.25
34065;BME280;20339;49.754;20.158;2022-11-02T12:52:50;97067.54;;;16.75;53.38
34065;BME280;20339;49.754;20.158;2022-11-02T12:55:32;97069.45;;;16.97;54.15
34065;BME280;20339;49.754;20.158;2022-11-02T12:58:09;97066.48;;;17.12;54.39
34065;BME280;20339;49.754;20.158;2022-11-02T13:00:46;97066.36;;;17.25;53.89
34065;BME280;20339;49.754;20.158;2022-11-02T13:03:29;97068.52;;;17.33;53.86
34065;BME280;20339;49.754;20.158;2022-11-02T13:06:05;97064.80;;;17.31;53.62
34065;BME280;20339;49.754;20.158;2022-11-02T13:08:41;97067.85;;;17.25;53.47
34065;BME280;20339;49.754;20.158;2022-11-02T13:11:19;97069.77;;;17.27;53.87
34065;BME280;20339;49.754;20.158;2022-11-02T13:13:54;97067.98;;;17.36;54.22
34065;BME280;20339;49.754;20.158;2022-11-02T13:16:36;97075.27;;;17.30;53.39
34065;BME280;20339;49.754;20.158;2022-11-02T13:19:15;97075.70;;;17.28;53.70
34065;BME280;20339;49.754;20.158;2022-11-02T13:21:50;97074.84;;;17.24;53.31
34065;BME280;20339;49.754;20.158;2022-11-02T13:24:29;97076.87;;;17.18;53.14
34065;BME280;20339;49.754;20.158;2022-11-02T13:27:06;97078.73;;;17.05;52.88
34065;BME280;20339;49.754;20.158;2022-11-02T13:29:43;97075.13;;;16.89;52.04
34065;BME280;20339;49.754;20.158;2022-11-02T13:32:22;97079.20;;;16.74;52.22
34065;BME280;20339;49.754;20.158;2022-11-02T13:34:56;97081.39;;;16.68;52.55
34065;BME280;20339;49.754;20.158;2022-11-02T13:37:32;97077.23;;;16.63;51.72